Arlington, Ohio
Current Conditions -  °F | °C
As of 9:53 AM on Friday 31 Oct 2014 (Local Time) from KFDY Reporting Station
Light Rain Light Rain  
Wind Chill: 41°   Ceiling: 4700
Heat Index: 45°   Visibility: 10mi
Dew Point: 37°   Wind: 8mph
Humidity: 74%   Direction: 230°SW
Pressure: 29.9"   Gusts: NA
Location:  40.89°N, 83.65°W
Report Text: KFDY 311353Z AUTO 23007KT 10SM -RA BKN047 BKN055 OVC070 07/03 A2990 RMK AO2 RAB41 SLP126 P0000 T00720028
Loading
Personal Weather Stations






























Interactive Weather Map
Tropical Storm Tracking
New forecast layout! Learn more

10-Day Weather Forecast

Advertisements
Track Severe Weather on mobile